Current Weather

Aeroflex-Andover Airport

Aeroflex-Andover Airport, New Jersey (K12N)

Report from: Friday, February 23, 2024 1:54 PM EST
Current time: Friday, February 23, 2024 2:38 PM EST

Nearby weather – Weather history – Daily summaries
Weather forecast

Temperature7.2°C (45.0°F)
Wind chill5.9°C (42.6°F)
Dew point2.2°C (36.0°F)
Winds 4 kts (2.1 m/s, 4.6 mph) North (360°)
Altimeter29.46 in.Hg (998 mB)
Relative humidity71 %
Density altitude-324 ft. (-99 m)
Sea-level pressure99.8 kPa (998 mB, 29.48 in.Hg)
Remarks Fully automated report
Automated weather observing station without precipitation discriminator
Raw dataK12N 231854Z AUTO 36004KT 07/02 A2946 RMK AO1 SLP984 T00720022
An error has occurred. This application may no longer respond until reloaded. Reload 🗙